Time,TemperatureF,DewpointF,PressureIn,WindDirection,WindDirectionDegrees,WindSpeedMPH,WindSpeedGustMPH,Humidity,HourlyPrecipIn,Conditions,Clouds,dailyrainin,SolarRadiationWatts/m^2,SoftwareType,DateUTC
2013-08-08 00:01:00,68.0,41.0,-100.00,SSW,193,6.0,12.0,37,0.00,,,0.00,0.000000,,2013-08-08 07:01:00,
2013-08-08 00:12:00,68.0,41.0,-100.00,SSW,193,6.0,12.0,37,0.00,,,0.00,0.000000,,2013-08-08 07:12:00,
2013-08-08 00:22:00,68.0,41.0,-100.00,SSW,193,6.0,12.0,37,0.00,,,0.00,0.000000,,2013-08-08 07:22:00,
2013-08-08 00:31:00,67.0,40.0,-100.00,SSE,168,1.0,11.0,37,0.00,,,0.00,0.000000,,2013-08-08 07:31:00,
2013-08-08 01:01:00,67.0,40.0,-100.00,SSE,168,1.0,11.0,37,0.00,,,0.00,0.000000,,2013-08-08 08:01:00,
2013-08-08 01:11:00,67.0,40.0,-100.00,SSE,168,1.0,11.0,37,0.00,,,0.00,0.000000,,2013-08-08 08:11:00,
2013-08-08 01:21:00,67.0,40.0,-100.00,SSE,168,1.0,11.0,37,0.00,,,0.00,0.000000,,2013-08-08 08:21:00,
2013-08-08 01:31:00,65.0,39.0,-100.00,North,352,2.0,5.0,39,0.00,,,0.00,0.000000,,2013-08-08 08:31:00,
2013-08-08 02:01:00,65.0,39.0,-100.00,North,352,2.0,5.0,39,0.00,,,0.00,0.000000,,2013-08-08 09:01:00,
2013-08-08 02:12:00,65.0,39.0,-100.00,North,352,2.0,5.0,39,0.00,,,0.00,0.000000,,2013-08-08 09:12:00,
2013-08-08 02:22:00,65.0,39.0,-100.00,North,352,2.0,5.0,39,0.00,,,0.00,0.000000,,2013-08-08 09:22:00,
2013-08-08 02:31:00,64.0,42.0,-100.00,NNW,346,2.0,4.0,44,0.00,,,0.00,0.000000,,2013-08-08 09:31:00,
2013-08-08 03:01:00,64.0,42.0,-100.00,NNW,346,2.0,4.0,44,0.00,,,0.00,0.000000,,2013-08-08 10:01:00,
2013-08-08 03:11:00,64.0,42.0,-100.00,NNW,346,2.0,4.0,44,0.00,,,0.00,0.000000,,2013-08-08 10:11:00,
2013-08-08 03:22:00,64.0,42.0,-100.00,NNW,346,2.0,4.0,44,0.00,,,0.00,0.000000,,2013-08-08 10:22:00,
2013-08-08 03:31:00,63.0,47.0,-100.00,North,10,2.0,4.0,56,0.00,,,0.00,0.000000,,2013-08-08 10:31:00,
2013-08-08 04:01:00,63.0,47.0,-100.00,North,10,2.0,4.0,56,0.00,,,0.00,0.000000,,2013-08-08 11:01:00,
2013-08-08 04:11:00,63.0,47.0,-100.00,North,10,2.0,4.0,56,0.00,,,0.00,0.000000,,2013-08-08 11:11:00,
2013-08-08 04:21:00,63.0,47.0,-100.00,North,10,2.0,4.0,56,0.00,,,0.00,0.000000,,2013-08-08 11:21:00,
2013-08-08 04:31:00,64.0,44.0,-100.00,ENE,60,1.0,5.0,49,0.00,,,0.00,0.000000,,2013-08-08 11:31:00,
2013-08-08 05:01:00,64.0,44.0,-100.00,ENE,60,1.0,5.0,49,0.00,,,0.00,0.000000,,2013-08-08 12:01:00,
2013-08-08 05:11:00,64.0,44.0,-100.00,ENE,60,1.0,5.0,49,0.00,,,0.00,0.000000,,2013-08-08 12:11:00,
2013-08-08 05:21:00,64.0,44.0,-100.00,ENE,60,1.0,5.0,49,0.00,,,0.00,0.000000,,2013-08-08 12:21:00,
2013-08-08 05:31:00,62.0,43.0,-100.00,SSW,208,5.0,8.0,49,0.00,,,0.00,0.000000,,2013-08-08 12:31:00,
2013-08-08 06:01:00,62.0,43.0,-100.00,SSW,208,5.0,8.0,49,0.00,,,0.00,0.000000,,2013-08-08 13:01:00,
2013-08-08 06:11:00,62.0,43.0,-100.00,SSW,208,5.0,8.0,49,0.00,,,0.00,0.000000,,2013-08-08 13:11:00,
2013-08-08 06:22:00,62.0,43.0,-100.00,SSW,208,5.0,8.0,49,0.00,,,0.00,0.000000,,2013-08-08 13:22:00,
2013-08-08 06:31:00,61.0,43.0,-100.00,SSW,199,1.0,6.0,51,0.00,,,0.00,5.000000,,2013-08-08 13:31:00,
2013-08-08 07:02:00,61.0,43.0,-100.00,SSW,199,1.0,6.0,51,0.00,,,0.00,5.000000,,2013-08-08 14:02:00,
2013-08-08 07:11:00,61.0,43.0,-100.00,SSW,199,1.0,6.0,51,0.00,,,0.00,5.000000,,2013-08-08 14:11:00,
2013-08-08 07:22:00,61.0,43.0,-100.00,SSW,199,1.0,6.0,51,0.00,,,0.00,5.000000,,2013-08-08 14:22:00,
2013-08-08 07:31:00,63.0,44.0,-100.00,SW,234,2.0,3.0,49,0.00,,,0.00,91.000000,,2013-08-08 14:31:00,
2013-08-08 08:02:00,63.0,44.0,-100.00,SW,234,2.0,3.0,49,0.00,,,0.00,91.000000,,2013-08-08 15:02:00,
2013-08-08 08:11:00,63.0,44.0,-100.00,SW,234,2.0,3.0,49,0.00,,,0.00,91.000000,,2013-08-08 15:11:00,
2013-08-08 08:22:00,63.0,44.0,-100.00,SW,234,2.0,3.0,49,0.00,,,0.00,91.000000,,2013-08-08 15:22:00,
2013-08-08 08:31:00,67.0,46.0,-100.00,SSW,211,2.0,6.0,47,0.00,,,0.00,238.000000,,2013-08-08 15:31:00,
2013-08-08 09:01:00,67.0,46.0,-100.00,SSW,211,2.0,6.0,47,0.00,,,0.00,238.000000,,2013-08-08 16:01:00,
2013-08-08 09:11:00,67.0,46.0,-100.00,SSW,211,2.0,6.0,47,0.00,,,0.00,238.000000,,2013-08-08 16:11:00,
2013-08-08 09:22:00,67.0,46.0,-100.00,SSW,211,2.0,6.0,47,0.00,,,0.00,238.000000,,2013-08-08 16:22:00,
2013-08-08 09:31:00,73.0,49.0,-100.00,SSW,203,2.0,6.0,43,0.00,,,0.00,454.000000,,2013-08-08 16:31:00,
2013-08-08 10:31:00,77.0,46.0,-100.00,NE,41,3.0,7.0,33,0.00,,,0.00,611.000000,,2013-08-08 17:31:00,
2013-08-08 11:01:00,77.0,46.0,-100.00,NE,41,3.0,7.0,33,0.00,,,0.00,611.000000,,2013-08-08 18:01:00,
2013-08-08 11:11:00,77.0,46.0,-100.00,NE,41,3.0,7.0,33,0.00,,,0.00,611.000000,,2013-08-08 18:11:00,
2013-08-08 11:21:00,77.0,46.0,-100.00,NE,41,3.0,7.0,33,0.00,,,0.00,611.000000,,2013-08-08 18:21:00,
2013-08-08 11:31:00,81.0,45.0,-100.00,South,171,3.0,7.0,28,0.00,,,0.00,767.000000,,2013-08-08 18:31:00,
2013-08-08 12:01:00,81.0,45.0,-100.00,South,171,3.0,7.0,28,0.00,,,0.00,767.000000,,2013-08-08 19:01:00,
2013-08-08 12:11:00,81.0,45.0,-100.00,South,171,3.0,7.0,28,0.00,,,0.00,767.000000,,2013-08-08 19:11:00,
2013-08-08 12:21:00,81.0,45.0,-100.00,South,171,3.0,7.0,28,0.00,,,0.00,767.000000,,2013-08-08 19:21:00,
2013-08-08 12:31:00,85.0,44.0,-100.00,North,350,4.0,8.0,24,0.00,,,0.00,828.000000,,2013-08-08 19:31:00,
2013-08-08 13:02:00,85.0,44.0,-100.00,North,350,4.0,8.0,24,0.00,,,0.00,828.000000,,2013-08-08 20:02:00,
2013-08-08 13:11:00,85.0,44.0,-100.00,North,350,4.0,8.0,24,0.00,,,0.00,828.000000,,2013-08-08 20:11:00,
2013-08-08 13:22:00,85.0,44.0,-100.00,North,350,4.0,8.0,24,0.00,,,0.00,828.000000,,2013-08-08 20:22:00,
2013-08-08 13:31:00,84.0,42.0,-100.00,NNE,29,4.0,11.0,23,0.00,,,0.00,722.000000,,2013-08-08 20:31:00,
2013-08-08 14:01:00,84.0,42.0,-100.00,NNE,29,4.0,11.0,23,0.00,,,0.00,722.000000,,2013-08-08 21:01:00,
2013-08-08 14:12:00,84.0,42.0,-100.00,NNE,29,4.0,11.0,23,0.00,,,0.00,722.000000,,2013-08-08 21:12:00,
2013-08-08 14:22:00,84.0,42.0,-100.00,NNE,29,4.0,11.0,23,0.00,,,0.00,722.000000,,2013-08-08 21:22:00,
2013-08-08 14:31:00,84.0,42.0,-100.00,South,171,6.0,11.0,23,0.00,,,0.00,614.000000,,2013-08-08 21:31:00,
2013-08-08 15:04:00,84.0,42.0,-100.00,South,171,6.0,11.0,23,0.00,,,0.00,614.000000,,2013-08-08 22:04:00,
2013-08-08 15:14:00,84.0,42.0,-100.00,South,171,6.0,11.0,23,0.00,,,0.00,614.000000,,2013-08-08 22:14:00,
2013-08-08 15:22:00,84.0,42.0,-100.00,South,171,6.0,11.0,23,0.00,,,0.00,614.000000,,2013-08-08 22:22:00,
2013-08-08 15:31:00,84.0,42.0,-100.00,SE,131,3.0,11.0,23,0.00,,,0.00,337.000000,,2013-08-08 22:31:00,
2013-08-08 16:04:00,84.0,42.0,-100.00,SE,131,3.0,11.0,23,0.00,,,0.00,337.000000,,2013-08-08 23:04:00,
2013-08-08 16:13:00,84.0,42.0,-100.00,SE,131,3.0,11.0,23,0.00,,,0.00,337.000000,,2013-08-08 23:13:00,
2013-08-08 16:23:00,84.0,42.0,-100.00,SE,131,3.0,11.0,23,0.00,,,0.00,337.000000,,2013-08-08 23:23:00,
2013-08-08 17:13:00,85.0,42.0,-100.00,NNE,25,3.0,8.0,22,0.00,,,0.00,397.000000,,2013-08-09 00:13:00,
2013-08-08 17:23:00,85.0,42.0,-100.00,NNE,25,3.0,8.0,22,0.00,,,0.00,397.000000,,2013-08-09 00:23:00,
2013-08-08 17:31:00,86.0,43.0,-100.00,NNE,25,4.0,10.0,22,0.00,,,0.00,416.000000,,2013-08-09 00:31:00,
2013-08-08 18:02:00,86.0,43.0,-100.00,NNE,25,4.0,10.0,22,0.00,,,0.00,416.000000,,2013-08-09 01:02:00,
2013-08-08 18:13:00,86.0,43.0,-100.00,NNE,25,4.0,10.0,22,0.00,,,0.00,416.000000,,2013-08-09 01:13:00,
2013-08-08 18:23:00,86.0,43.0,-100.00,NNE,25,4.0,10.0,22,0.00,,,0.00,416.000000,,2013-08-09 01:23:00,
2013-08-08 18:31:00,79.0,47.0,-100.00,North,354,7.0,15.0,33,-99.99,,,0.00,192.000000,,2013-08-09 01:31:00,
2013-08-08 19:03:00,79.0,47.0,-100.00,North,354,7.0,15.0,33,-99.99,,,0.00,192.000000,,2013-08-09 02:03:00,
2013-08-08 19:12:00,79.0,47.0,-100.00,North,354,7.0,15.0,33,-99.99,,,0.00,192.000000,,2013-08-09 02:12:00,
2013-08-08 19:23:00,79.0,47.0,-100.00,North,354,7.0,15.0,33,-99.99,,,0.00,192.000000,,2013-08-09 02:23:00,
2013-08-08 19:31:00,76.0,46.0,-100.00,NNE,33,3.0,11.0,35,0.00,,,0.00,75.000000,,2013-08-09 02:31:00,
2013-08-08 19:56:00,76.0,46.0,-100.00,NNE,33,3.0,11.0,35,0.00,,,0.00,75.000000,,2013-08-09 02:56:00,
2013-08-08 20:04:00,76.0,46.0,-100.00,NNE,33,3.0,11.0,35,0.00,,,0.00,75.000000,,2013-08-09 03:04:00,
2013-08-08 20:12:00,76.0,46.0,-100.00,NNE,33,3.0,11.0,35,0.00,,,0.00,75.000000,,2013-08-09 03:12:00,
2013-08-08 20:23:00,76.0,46.0,-100.00,NNE,33,3.0,11.0,35,0.00,,,0.00,75.000000,,2013-08-09 03:23:00,
2013-08-08 20:31:00,74.0,46.0,-100.00,South,184,4.0,7.0,37,0.00,,,0.00,22.000000,,2013-08-09 03:31:00,
2013-08-08 21:01:00,74.0,46.0,-100.00,South,184,4.0,7.0,37,0.00,,,0.00,22.000000,,2013-08-09 04:01:00,
2013-08-08 21:12:00,74.0,46.0,-100.00,South,184,4.0,7.0,37,0.00,,,0.00,22.000000,,2013-08-09 04:12:00,
2013-08-08 21:22:00,74.0,46.0,-100.00,South,184,4.0,7.0,37,0.00,,,0.00,22.000000,,2013-08-09 04:22:00,
2013-08-08 21:31:00,71.0,50.0,-100.00,SSW,204,6.0,12.0,48,0.00,,,0.00,0.000000,,2013-08-09 04:31:00,
2013-08-08 22:01:00,71.0,50.0,-100.00,SSW,204,6.0,12.0,48,0.00,,,0.00,0.000000,,2013-08-09 05:01:00,
2013-08-08 22:11:00,71.0,50.0,-100.00,SSW,204,6.0,12.0,48,0.00,,,0.00,0.000000,,2013-08-09 05:11:00,
2013-08-08 22:21:00,71.0,50.0,-100.00,SSW,204,6.0,12.0,48,0.00,,,0.00,0.000000,,2013-08-09 05:21:00,
2013-08-08 22:31:00,68.0,50.0,-100.00,SSW,208,3.0,8.0,53,0.00,,,0.00,0.000000,,2013-08-09 05:31:00,
2013-08-08 23:01:00,68.0,50.0,-100.00,SSW,208,3.0,8.0,53,0.00,,,0.00,0.000000,,2013-08-09 06:01:00,
2013-08-08 23:11:00,68.0,50.0,-100.00,SSW,208,3.0,8.0,53,0.00,,,0.00,0.000000,,2013-08-09 06:11:00,
2013-08-08 23:21:00,68.0,50.0,-100.00,SSW,208,3.0,8.0,53,0.00,,,0.00,0.000000,,2013-08-09 06:21:00,
2013-08-08 23:31:00,67.0,52.0,-100.00,South,187,3.0,8.0,58,0.00,,,0.00,0.000000,,2013-08-09 06:31:00,